sensor_id;sensor_type;location;lat;lon;timestamp;pressure;altitude;pressure_sealevel;temperature
60615;BMP280;46444;45.590;5.284;2023-02-28T00:01:25;99014.94;;;3.29
60615;BMP280;46444;45.590;5.284;2023-02-28T00:03:51;99020.41;;;3.27
60615;BMP280;46444;45.590;5.284;2023-02-28T00:06:19;99010.44;;;3.29
60615;BMP280;46444;45.590;5.284;2023-02-28T00:08:46;99013.84;;;3.23
60615;BMP280;46444;45.590;5.284;2023-02-28T00:11:13;99010.31;;;3.16
60615;BMP280;46444;45.590;5.284;2023-02-28T00:13:45;99016.03;;;3.20
60615;BMP280;46444;45.590;5.284;2023-02-28T00:16:17;99018.31;;;3.23
60615;BMP280;46444;45.590;5.284;2023-02-28T00:18:43;99007.94;;;3.21
60615;BMP280;46444;45.590;5.284;2023-02-28T00:21:13;99018.50;;;3.21
60615;BMP280;46444;45.590;5.284;2023-02-28T00:23:43;99018.50;;;3.21
60615;BMP280;46444;45.590;5.284;2023-02-28T00:26:16;99024.41;;;3.23
60615;BMP280;46444;45.590;5.284;2023-02-28T00:28:43;99020.50;;;3.19
60615;BMP280;46444;45.590;5.284;2023-02-28T00:31:17;99030.06;;;3.20
60615;BMP280;46444;45.590;5.284;2023-02-28T00:33:44;99027.78;;;3.17
60615;BMP280;46444;45.590;5.284;2023-02-28T00:36:23;99023.78;;;3.21
60615;BMP280;46444;45.590;5.284;2023-02-28T00:38:49;99025.25;;;3.09
60615;BMP280;46444;45.590;5.284;2023-02-28T00:41:14;99030.34;;;3.11
60615;BMP280;46444;45.590;5.284;2023-02-28T00:43:45;99024.84;;;3.12
60615;BMP280;46444;45.590;5.284;2023-02-28T00:46:14;99036.34;;;3.19
60615;BMP280;46444;45.590;5.284;2023-02-28T00:48:40;99031.41;;;3.16
60615;BMP280;46444;45.590;5.284;2023-02-28T00:51:05;99036.44;;;3.11
60615;BMP280;46444;45.590;5.284;2023-02-28T00:53:31;99030.53;;;3.09
60615;BMP280;46444;45.590;5.284;2023-02-28T00:56:10;99029.34;;;3.12
60615;BMP280;46444;45.590;5.284;2023-02-28T00:58:37;99033.06;;;3.17
60615;BMP280;46444;45.590;5.284;2023-02-28T01:01:02;99025.69;;;3.13
60615;BMP280;46444;45.590;5.284;2023-02-28T01:03:37;99034.69;;;3.18
60615;BMP280;46444;45.590;5.284;2023-02-28T01:06:05;99038.03;;;3.27
60615;BMP280;46444;45.590;5.284;2023-02-28T01:08:31;99034.88;;;3.31
60615;BMP280;46444;45.590;5.284;2023-02-28T01:10:57;99036.78;;;3.23
60615;BMP280;46444;45.590;5.284;2023-02-28T01:13:23;99034.22;;;3.29
60615;BMP280;46444;45.590;5.284;2023-02-28T01:15:58;99030.03;;;3.35
60615;BMP280;46444;45.590;5.284;2023-02-28T01:18:37;99029.59;;;3.31
60615;BMP280;46444;45.590;5.284;2023-02-28T01:21:07;99033.47;;;3.35
60615;BMP280;46444;45.590;5.284;2023-02-28T01:23:34;99033.31;;;3.37
60615;BMP280;46444;45.590;5.284;2023-02-28T01:26:14;99034.41;;;3.42
60615;BMP280;46444;45.590;5.284;2023-02-28T01:28:40;99041.59;;;3.48
60615;BMP280;46444;45.590;5.284;2023-02-28T01:31:06;99036.22;;;3.42
60615;BMP280;46444;45.590;5.284;2023-02-28T01:33:32;99038.19;;;3.54
60615;BMP280;46444;45.590;5.284;2023-02-28T01:36:09;99032.66;;;3.49
60615;BMP280;46444;45.590;5.284;2023-02-28T01:38:40;99033.41;;;3.43
60615;BMP280;46444;45.590;5.284;2023-02-28T01:41:09;99035.91;;;3.51
60615;BMP280;46444;45.590;5.284;2023-02-28T01:46:12;99043.66;;;3.53
60615;BMP280;46444;45.590;5.284;2023-02-28T01:49:00;99038.94;;;3.48
60615;BMP280;46444;45.590;5.284;2023-02-28T01:51:32;99032.25;;;3.52
60615;BMP280;46444;45.590;5.284;2023-02-28T01:54:09;99038.38;;;3.53
60615;BMP280;46444;45.590;5.284;2023-02-28T01:56:53;99036.75;;;3.52
60615;BMP280;46444;45.590;5.284;2023-02-28T01:59:30;99036.06;;;3.64
60615;BMP280;46444;45.590;5.284;2023-02-28T02:02:03;99032.72;;;3.56
60615;BMP280;46444;45.590;5.284;2023-02-28T02:04:36;99023.50;;;3.66
60615;BMP280;46444;45.590;5.284;2023-02-28T02:07:04;99034.72;;;3.54
60615;BMP280;46444;45.590;5.284;2023-02-28T02:09:31;99033.66;;;3.48
60615;BMP280;46444;45.590;5.284;2023-02-28T02:12:02;99033.28;;;3.51
60615;BMP280;46444;45.590;5.284;2023-02-28T02:17:46;99032.28;;;3.38
60615;BMP280;46444;45.590;5.284;2023-02-28T02:29:31;99033.31;;;3.37
60615;BMP280;46444;45.590;5.284;2023-02-28T02:35:25;99024.31;;;3.31
60615;BMP280;46444;45.590;5.284;2023-02-28T02:41:08;99028.13;;;3.43
60615;BMP280;46444;45.590;5.284;2023-02-28T02:43:44;99030.19;;;3.48
60615;BMP280;46444;45.590;5.284;2023-02-28T02:46:18;99015.97;;;3.49
60615;BMP280;46444;45.590;5.284;2023-02-28T02:48:46;99035.41;;;3.27
60615;BMP280;46444;45.590;5.284;2023-02-28T02:51:15;99028.50;;;3.26
60615;BMP280;46444;45.590;5.284;2023-02-28T02:53:55;99022.59;;;3.24
60615;BMP280;46444;45.590;5.284;2023-02-28T02:56:25;99031.03;;;3.48
60615;BMP280;46444;45.590;5.284;2023-02-28T02:58:57;99015.41;;;3.53
60615;BMP280;46444;45.590;5.284;2023-02-28T03:01:34;99017.25;;;3.53
60615;BMP280;46444;45.590;5.284;2023-02-28T03:04:10;99030.94;;;3.42
60615;BMP280;46444;45.590;5.284;2023-02-28T03:06:36;99031.28;;;3.39
60615;BMP280;46444;45.590;5.284;2023-02-28T03:09:03;99037.09;;;3.49
60615;BMP280;46444;45.590;5.284;2023-02-28T03:11:31;99026.84;;;3.39
60615;BMP280;46444;45.590;5.284;2023-02-28T03:14:28;99035.06;;;3.15
60615;BMP280;46444;45.590;5.284;2023-02-28T03:33:46;99027.22;;;3.36
60615;BMP280;46444;45.590;5.284;2023-02-28T03:36:23;99036.69;;;3.16
60615;BMP280;46444;45.590;5.284;2023-02-28T03:39:25;99037.84;;;3.43
60615;BMP280;46444;45.590;5.284;2023-02-28T03:42:15;99038.69;;;3.43
60615;BMP280;46444;45.590;5.284;2023-02-28T03:45:05;99029.44;;;2.89
60615;BMP280;46444;45.590;5.284;2023-02-28T03:50:08;99035.91;;;3.01
60615;BMP280;46444;45.590;5.284;2023-02-28T03:52:47;99040.25;;;2.94
60615;BMP280;46444;45.590;5.284;2023-02-28T03:55:15;99035.91;;;2.87
60615;BMP280;46444;45.590;5.284;2023-02-28T03:58:49;99049.44;;;2.69
60615;BMP280;46444;45.590;5.284;2023-02-28T04:01:00;99047.09;;;3.03
60615;BMP280;46444;45.590;5.284;2023-02-28T04:03:38;99056.38;;;2.99
60615;BMP280;46444;45.590;5.284;2023-02-28T04:06:07;99045.81;;;2.99
60615;BMP280;46444;45.590;5.284;2023-02-28T04:08:33;99048.38;;;2.78
60615;BMP280;46444;45.590;5.284;2023-02-28T04:11:04;99047.53;;;3.07
60615;BMP280;46444;45.590;5.284;2023-02-28T04:13:31;99041.53;;;2.69
60615;BMP280;46444;45.590;5.284;2023-02-28T04:15:58;99051.81;;;2.79
60615;BMP280;46444;45.590;5.284;2023-02-28T04:18:29;99054.81;;;2.76
60615;BMP280;46444;45.590;5.284;2023-02-28T04:20:59;99058.47;;;2.89
60615;BMP280;46444;45.590;5.284;2023-02-28T04:23:25;99063.81;;;2.81
60615;BMP280;46444;45.590;5.284;2023-02-28T04:25:54;99062.03;;;2.96
60615;BMP280;46444;45.590;5.284;2023-02-28T04:28:20;99066.84;;;2.78
60615;BMP280;46444;45.590;5.284;2023-02-28T04:31:05;99062.00;;;2.67
60615;BMP280;46444;45.590;5.284;2023-02-28T04:33:41;99079.41;;;2.39
60615;BMP280;46444;45.590;5.284;2023-02-28T04:36:08;99075.50;;;2.87
60615;BMP280;46444;45.590;5.284;2023-02-28T04:38:36;99073.59;;;2.95
60615;BMP280;46444;45.590;5.284;2023-02-28T04:41:02;99073.75;;;2.94
60615;BMP280;46444;45.590;5.284;2023-02-28T04:43:34;99071.47;;;3.05
60615;BMP280;46444;45.590;5.284;2023-02-28T04:46:03;99079.13;;;3.00
60615;BMP280;46444;45.590;5.284;2023-02-28T04:48:33;99076.22;;;2.95
60615;BMP280;46444;45.590;5.284;2023-02-28T04:51:06;99065.38;;;2.76
60615;BMP280;46444;45.590;5.284;2023-02-28T04:53:32;99060.00;;;2.69
60615;BMP280;46444;45.590;5.284;2023-02-28T04:55:59;99067.63;;;2.64
60615;BMP280;46444;45.590;5.284;2023-02-28T04:58:24;99071.47;;;2.76
60615;BMP280;46444;45.590;5.284;2023-02-28T05:00:51;99071.25;;;2.63
60615;BMP280;46444;45.590;5.284;2023-02-28T05:03:19;99077.53;;;2.62
60615;BMP280;46444;45.590;5.284;2023-02-28T05:05:47;99073.81;;;2.57
60615;BMP280;46444;45.590;5.284;2023-02-28T05:08:13;99083.78;;;2.47
60615;BMP280;46444;45.590;5.284;2023-02-28T05:10:38;99089.56;;;2.65
60615;BMP280;46444;45.590;5.284;2023-02-28T05:13:04;99092.41;;;2.78
60615;BMP280;46444;45.590;5.284;2023-02-28T05:15:30;99091.81;;;2.53
60615;BMP280;46444;45.590;5.284;2023-02-28T05:17:55;99093.84;;;2.80
60615;BMP280;46444;45.590;5.284;2023-02-28T05:20:21;99091.75;;;2.76
60615;BMP280;46444;45.590;5.284;2023-02-28T05:22:49;99094.78;;;2.87
60615;BMP280;46444;45.590;5.284;2023-02-28T05:25:20;99098.13;;;2.81
60615;BMP280;46444;45.590;5.284;2023-02-28T05:27:47;99092.78;;;2.89
60615;BMP280;46444;45.590;5.284;2023-02-28T05:30:15;99091.66;;;2.84
60615;BMP280;46444;45.590;5.284;2023-02-28T05:32:55;99100.16;;;2.94
60615;BMP280;46444;45.590;5.284;2023-02-28T05:35:53;99110.91;;;2.55
60615;BMP280;46444;45.590;5.284;2023-02-28T05:39:05;99110.00;;;2.48
60615;BMP280;46444;45.590;5.284;2023-02-28T05:41:32;99108.31;;;2.70
60615;BMP280;46444;45.590;5.284;2023-02-28T05:43:58;99113.97;;;2.44
60615;BMP280;46444;45.590;5.284;2023-02-28T05:46:25;99121.81;;;2.52
60615;BMP280;46444;45.590;5.284;2023-02-28T05:48:52;99114.19;;;2.57
60615;BMP280;46444;45.590;5.284;2023-02-28T05:51:18;99116.19;;;2.10
60615;BMP280;46444;45.590;5.284;2023-02-28T05:53:45;99116.31;;;2.39
60615;BMP280;46444;45.590;5.284;2023-02-28T05:56:14;99113.25;;;2.50
60615;BMP280;46444;45.590;5.284;2023-02-28T06:06:49;99118.06;;;2.47
60615;BMP280;46444;45.590;5.284;2023-02-28T06:23:33;99114.19;;;2.57
60615;BMP280;46444;45.590;5.284;2023-02-28T06:39:25;99128.63;;;2.47
60615;BMP280;46444;45.590;5.284;2023-02-28T06:42:35;99128.53;;;2.55
60615;BMP280;46444;45.590;5.284;2023-02-28T06:47:40;99150.28;;;1.89
60615;BMP280;46444;45.590;5.284;2023-02-28T06:50:16;99150.03;;;2.29
60615;BMP280;46444;45.590;5.284;2023-02-28T06:53:27;99148.34;;;1.75
60615;BMP280;46444;45.590;5.284;2023-02-28T06:56:17;99154.34;;;2.22
60615;BMP280;46444;45.590;5.284;2023-02-28T21:06:39;99209.34;;;4.73
60615;BMP280;46444;45.590;5.284;2023-02-28T21:47:02;99203.97;;;4.67
60615;BMP280;46444;45.590;5.284;2023-02-28T21:50:01;99212.34;;;4.49
60615;BMP280;46444;45.590;5.284;2023-02-28T21:52:56;99201.38;;;4.52
60615;BMP280;46444;45.590;5.284;2023-02-28T21:55:43;99208.56;;;4.58
60615;BMP280;46444;45.590;5.284;2023-02-28T21:58:43;99201.13;;;4.68
60615;BMP280;46444;45.590;5.284;2023-02-28T22:01:45;99213.59;;;4.53
60615;BMP280;46444;45.590;5.284;2023-02-28T22:04:49;99213.59;;;4.53
60615;BMP280;46444;45.590;5.284;2023-02-28T22:07:42;99210.75;;;4.55
60615;BMP280;46444;45.590;5.284;2023-02-28T22:10:22;99205.72;;;4.60
60615;BMP280;46444;45.590;5.284;2023-02-28T22:13:16;99206.09;;;4.57
60615;BMP280;46444;45.590;5.284;2023-02-28T22:16:10;99198.59;;;4.60
60615;BMP280;46444;45.590;5.284;2023-02-28T22:19:20;99203.88;;;4.60
60615;BMP280;46444;45.590;5.284;2023-02-28T22:22:03;99197.28;;;4.50
60615;BMP280;46444;45.590;5.284;2023-02-28T22:31:39;99184.47;;;4.53
60615;BMP280;46444;45.590;5.284;2023-02-28T23:00:08;99206.59;;;4.10
60615;BMP280;46444;45.590;5.284;2023-02-28T23:03:29;99217.78;;;4.27
60615;BMP280;46444;45.590;5.284;2023-02-28T23:07:04;99209.78;;;4.20
60615;BMP280;46444;45.590;5.284;2023-02-28T23:10:05;99211.69;;;4.47
60615;BMP280;46444;45.590;5.284;2023-02-28T23:13:35;99210.88;;;4.11
60615;BMP280;46444;45.590;5.284;2023-02-28T23:16:38;99215.03;;;4.35
60615;BMP280;46444;45.590;5.284;2023-02-28T23:19:51;99218.94;;;4.39
60615;BMP280;46444;45.590;5.284;2023-02-28T23:23:15;99207.84;;;4.29
60615;BMP280;46444;45.590;5.284;2023-02-28T23:26:36;99217.84;;;4.33
60615;BMP280;46444;45.590;5.284;2023-02-28T23:29:18;99209.13;;;4.18
60615;BMP280;46444;45.590;5.284;2023-02-28T23:32:33;99214.19;;;4.34
60615;BMP280;46444;45.590;5.284;2023-02-28T23:51:15;99237.63;;;3.87
60615;BMP280;46444;45.590;5.284;2023-02-28T23:54:04;99239.44;;;3.58
60615;BMP280;46444;45.590;5.284;2023-02-28T23:56:54;99235.34;;;3.84
60615;BMP280;46444;45.590;5.284;2023-02-28T23:59:23;99241.09;;;3.73
